Time;durP1;ratioP1;P1;durP2;ratioP2;P2;SDS_P1;SDS_P2;PMS_P1;PMS_P2;Temp;Humidity;BMP_temperature;BMP_pressure;BME280_temperature;BME280_humidity;BME280_pressure;Samples;Min_cycle;Max_cycle;Signal;HPM_P1;HPM_P2
2022/10/22 00:02:26;;;;;;;5.83;3.70;;;17.40;99.90;;;;;;5031133;28;20569;-74
2022/10/22 00:04:53;;;;;;;4.47;3.00;;;17.40;99.90;;;;;;5031576;28;20166;-74
2022/10/22 00:07:20;;;;;;;6.10;4.10;;;17.40;99.90;;;;;;5013881;28;20569;-74
2022/10/22 00:09:46;;;;;;;8.87;4.57;;;17.40;99.90;;;;;;5031384;28;20616;-74
2022/10/22 00:12:13;;;;;;;8.20;3.10;;;17.40;99.90;;;;;;5013463;28;21158;-75
2022/10/22 00:14:39;;;;;;;4.37;3.77;;;17.30;99.90;;;;;;5031356;28;20572;-74
2022/10/22 00:17:05;;;;;;;9.43;4.00;;;17.30;99.90;;;;;;5031262;28;20636;-74
2022/10/22 00:19:31;;;;;;;7.20;4.10;;;17.30;99.90;;;;;;5030970;28;21187;-74
2022/10/22 00:21:57;;;;;;;3.53;2.83;;;17.30;99.90;;;;;;5030812;28;20623;-74
2022/10/22 00:24:23;;;;;;;3.33;2.90;;;17.30;99.90;;;;;;5031279;28;20634;-74
2022/10/22 00:26:49;;;;;;;6.13;3.50;;;17.30;99.90;;;;;;5033772;28;20158;-74
2022/10/22 00:29:18;;;;;;;5.47;3.67;;;17.30;99.90;;;;;;5035631;28;20615;-74
2022/10/22 00:31:48;;;;;;;4.43;3.70;;;17.40;99.90;;;;;;5038801;28;20572;-74
2022/10/22 00:34:16;;;;;;;7.33;3.77;;;17.40;99.90;;;;;;5034986;28;20561;-74
2022/10/22 00:36:42;;;;;;;6.23;3.97;;;17.40;99.90;;;;;;5035340;28;20663;-74
2022/10/22 00:39:07;;;;;;;9.60;5.00;;;17.40;99.90;;;;;;5035108;28;21226;-74
2022/10/22 00:41:33;;;;;;;5.13;3.63;;;17.40;99.90;;;;;;5034863;28;20588;-75
2022/10/22 00:44:02;;;;;;;4.50;3.50;;;17.40;99.90;;;;;;5034677;28;20186;-74
2022/10/22 00:46:28;;;;;;;7.27;3.50;;;17.40;99.90;;;;;;5017225;28;20260;-74
2022/10/22 00:48:56;;;;;;;3.40;2.90;;;17.40;99.90;;;;;;5034860;28;21045;-75
2022/10/22 00:51:26;;;;;;;3.70;3.10;;;17.40;99.90;;;;;;5034879;28;21123;-74
2022/10/22 00:53:56;;;;;;;4.87;3.63;;;17.50;99.90;;;;;;5034645;28;20571;-74
2022/10/22 00:56:23;;;;;;;6.60;3.03;;;17.50;99.90;;;;;;5034804;28;20598;-74
2022/10/22 00:58:56;;;;;;;4.10;3.53;;;17.50;99.90;;;;;;5017012;28;20595;-74
2022/10/22 01:01:28;;;;;;;5.00;2.53;;;17.40;99.90;;;;;;5034674;28;20631;-74
2022/10/22 01:03:54;;;;;;;8.60;2.93;;;17.50;99.90;;;;;;5034606;28;20930;-74
2022/10/22 01:06:30;;;;;;;5.90;3.30;;;17.50;99.90;;;;;;5035180;28;20564;-74
2022/10/22 01:09:17;;;;;;;5.67;3.30;;;17.50;99.90;;;;;;5037559;28;21148;-74
2022/10/22 01:12:09;;;;;;;4.40;2.97;;;17.50;99.90;;;;;;5034542;28;20573;-74
2022/10/22 01:14:49;;;;;;;3.80;2.57;;;17.50;99.90;;;;;;5034564;28;20571;-74
2022/10/22 01:17:27;;;;;;;3.70;2.70;;;17.50;99.90;;;;;;5034407;28;20972;-74
2022/10/22 01:20:20;;;;;;;6.87;2.53;;;17.50;99.90;;;;;;5034195;28;20738;-74
2022/10/22 01:22:58;;;;;;;10.60;2.80;;;17.50;99.90;;;;;;4999857;28;20683;-74
2022/10/22 01:26:01;;;;;;;4.97;2.90;;;17.50;99.90;;;;;;5034388;28;20606;-75
2022/10/22 01:28:54;;;;;;;4.50;2.47;;;17.40;99.90;;;;;;5034288;28;20606;-74
2022/10/22 01:31:22;;;;;;;4.10;3.13;;;17.40;99.90;;;;;;5034113;28;20576;-74
2022/10/22 01:33:50;;;;;;;5.80;2.47;;;17.40;99.90;;;;;;5033898;28;20588;-75
2022/10/22 01:36:17;;;;;;;4.10;2.70;;;17.40;99.90;;;;;;5034154;28;20561;-74
2022/10/22 01:38:45;;;;;;;4.37;2.40;;;17.40;99.90;;;;;;5016239;28;20646;-74
2022/10/22 01:41:11;;;;;;;6.13;3.27;;;17.40;99.90;;;;;;5016296;28;21253;-74
2022/10/22 01:43:37;;;;;;;6.80;2.90;;;17.40;99.90;;;;;;5035310;28;20560;-74
2022/10/22 01:46:05;;;;;;;4.30;2.23;;;17.50;99.90;;;;;;5036568;28;20929;-74
2022/10/22 01:48:50;;;;;;;5.13;3.00;;;17.50;99.90;;;;;;5033961;28;20188;-75
2022/10/22 01:51:53;;;;;;;4.53;2.40;;;17.40;99.90;;;;;;5016351;28;20560;-74
2022/10/22 01:54:41;;;;;;;4.60;2.30;;;17.40;99.90;;;;;;5033708;28;20559;-75
2022/10/22 01:57:24;;;;;;;6.63;3.00;;;17.40;99.90;;;;;;5033829;28;20600;-75
2022/10/22 02:00:07;;;;;;;5.43;2.63;;;17.40;99.90;;;;;;5033594;28;20734;-75
2022/10/22 02:02:40;;;;;;;8.43;3.27;;;17.40;99.90;;;;;;5015740;28;20575;-75
2022/10/22 02:05:12;;;;;;;3.47;3.03;;;17.40;99.90;;;;;;5016017;28;20929;-75
2022/10/22 02:07:50;;;;;;;5.00;2.67;;;17.40;99.90;;;;;;5033540;28;20576;-75
2022/10/22 02:10:17;;;;;;;2.70;2.30;;;17.40;99.90;;;;;;5015962;28;20687;-75
2022/10/22 02:12:47;;;;;;;6.27;2.97;;;17.40;99.90;;;;;;5033186;28;20659;-74
2022/10/22 02:15:14;;;;;;;5.00;2.80;;;17.40;99.90;;;;;;5015427;28;20572;-74
2022/10/22 02:17:43;;;;;;;4.43;2.77;;;17.40;99.90;;;;;;5033205;28;20588;-74
2022/10/22 02:20:15;;;;;;;6.03;2.80;;;17.40;99.90;;;;;;5033419;28;20950;-75
2022/10/22 02:22:41;;;;;;;9.97;3.60;;;17.40;99.90;;;;;;5036796;28;20572;-75
2022/10/22 02:25:09;;;;;;;6.07;2.70;;;17.40;99.90;;;;;;5015654;28;20954;-76
2022/10/22 02:27:44;;;;;;;5.77;2.77;;;17.40;99.90;;;;;;5033252;28;20644;-75
2022/10/22 02:30:21;;;;;;;8.87;3.20;;;17.40;99.90;;;;;;5015341;28;20610;-75
2022/10/22 02:32:47;;;;;;;4.87;2.73;;;17.40;99.90;;;;;;5032787;28;20572;-75
2022/10/22 02:35:18;;;;;;;5.10;3.00;;;17.30;99.90;;;;;;5033153;28;20575;-75
2022/10/22 02:37:44;;;;;;;6.80;3.40;;;17.30;99.90;;;;;;5015271;28;20204;-75
2022/10/22 02:40:10;;;;;;;3.90;2.77;;;17.30;99.90;;;;;;5032966;28;21166;-75
2022/10/22 02:42:39;;;;;;;5.63;2.83;;;17.30;99.90;;;;;;5032583;28;20583;-75
2022/10/22 02:45:05;;;;;;;5.70;2.33;;;17.30;99.90;;;;;;5033027;28;20573;-75
2022/10/22 02:47:31;;;;;;;4.10;2.50;;;17.30;99.90;;;;;;5032880;28;20563;-75
2022/10/22 02:49:57;;;;;;;4.93;3.30;;;17.30;99.90;;;;;;5032383;28;20695;-75
2022/10/22 02:52:23;;;;;;;7.40;2.73;;;17.30;99.90;;;;;;5032218;28;20576;-75
2022/10/22 02:54:49;;;;;;;7.40;3.03;;;17.30;99.90;;;;;;5032708;28;20181;-75
2022/10/22 02:57:14;;;;;;;5.87;2.33;;;17.20;99.90;;;;;;5014907;28;20580;-75
2022/10/22 02:59:41;;;;;;;4.93;2.50;;;17.20;99.90;;;;;;5033851;28;20625;-75
2022/10/22 03:02:07;;;;;;;8.90;3.60;;;17.20;99.90;;;;;;5032159;28;20600;-75
2022/10/22 03:04:32;;;;;;;5.10;2.53;;;17.20;99.90;;;;;;5032590;28;20577;-75
2022/10/22 03:06:58;;;;;;;3.37;3.07;;;17.20;99.90;;;;;;5032454;28;20169;-75
2022/10/22 03:09:24;;;;;;;3.93;2.53;;;17.10;99.90;;;;;;5032305;28;20186;-75
2022/10/22 03:11:50;;;;;;;5.23;3.60;;;17.10;99.90;;;;;;5032140;28;20176;-75
2022/10/22 03:14:16;;;;;;;4.90;3.37;;;17.10;99.90;;;;;;5032120;28;20166;-75
2022/10/22 03:16:41;;;;;;;5.30;3.07;;;17.10;99.90;;;;;;5032115;28;20568;-75
2022/10/22 03:19:07;;;;;;;7.07;2.80;;;17.00;99.90;;;;;;5031871;28;20300;-75
2022/10/22 03:21:47;;;;;;;5.50;3.10;;;17.00;99.90;;;;;;5014394;28;20270;-75
2022/10/22 03:24:41;;;;;;;4.10;3.27;;;17.00;99.90;;;;;;5031962;28;20184;-75
2022/10/22 03:27:07;;;;;;;4.07;2.30;;;17.00;99.90;;;;;;5028941;28;20619;-75
2022/10/22 03:29:36;;;;;;;7.30;3.93;;;17.00;99.90;;;;;;5039032;28;20976;-74
2022/10/22 03:32:02;;;;;;;5.53;3.77;;;16.90;99.90;;;;;;5042994;28;20678;-75
2022/10/22 03:34:28;;;;;;;7.30;3.13;;;16.90;99.90;;;;;;5052044;28;20906;-75
2022/10/22 03:36:56;;;;;;;6.00;3.73;;;16.80;99.90;;;;;;5038273;28;20681;-75
2022/10/22 03:39:22;;;;;;;5.70;3.50;;;16.80;99.90;;;;;;5051584;28;20188;-75
2022/10/22 03:41:50;;;;;;;5.30;4.80;;;16.80;99.90;;;;;;5033698;28;20579;-74
2022/10/22 03:44:16;;;;;;;3.47;2.90;;;16.70;99.90;;;;;;5051402;28;20633;-74
2022/10/22 03:46:43;;;;;;;4.03;3.03;;;16.70;99.90;;;;;;5051613;28;20552;-75
2022/10/22 03:49:08;;;;;;;3.67;2.70;;;16.70;99.90;;;;;;5051487;28;21238;-75
2022/10/22 03:51:34;;;;;;;7.43;3.63;;;16.70;99.90;;;;;;5051410;28;20769;-75
2022/10/22 03:54:01;;;;;;;6.53;3.17;;;16.70;99.90;;;;;;5033086;28;20200;-75
2022/10/22 03:56:27;;;;;;;5.97;3.40;;;16.70;99.90;;;;;;5051570;28;20661;-75
2022/10/22 03:58:56;;;;;;;7.13;3.90;;;16.70;99.90;;;;;;5051354;28;20686;-74
2022/10/22 04:01:22;;;;;;;4.87;4.20;;;16.70;99.90;;;;;;5050432;28;20218;-74
2022/10/22 04:03:48;;;;;;;5.17;3.07;;;16.70;99.90;;;;;;5017089;28;20603;-74
2022/10/22 04:06:14;;;;;;;5.70;3.27;;;16.70;99.90;;;;;;5051401;28;21131;-74
2022/10/22 04:08:42;;;;;;;4.63;2.83;;;16.60;99.90;;;;;;5033530;28;20698;-75
2022/10/22 04:11:08;;;;;;;6.37;4.20;;;16.60;99.90;;;;;;5051203;28;20173;-75
2022/10/22 04:13:33;;;;;;;6.33;3.20;;;16.70;99.90;;;;;;5053696;28;20569;-74
2022/10/22 04:16:13;;;;;;;6.33;3.73;;;16.70;99.90;;;;;;5052469;28;20559;-75
2022/10/22 04:18:40;;;;;;;4.90;3.70;;;16.60;99.90;;;;;;5051539;28;20250;-75
2022/10/22 04:21:08;;;;;;;4.50;3.07;;;16.70;99.90;;;;;;5051478;28;20622;-74
2022/10/22 04:23:34;;;;;;;6.23;3.80;;;16.60;99.90;;;;;;5049715;28;20572;-75
2022/10/22 04:26:02;;;;;;;4.87;2.93;;;16.60;99.90;;;;;;5017013;28;21094;-75
2022/10/22 04:28:28;;;;;;;4.87;3.30;;;16.60;99.90;;;;;;5051118;28;20272;-75
2022/10/22 04:30:54;;;;;;;5.77;3.23;;;16.60;99.90;;;;;;5051289;28;21193;-74
2022/10/22 04:33:20;;;;;;;3.40;2.70;;;16.60;99.90;;;;;;5033265;28;20169;-75
2022/10/22 04:35:46;;;;;;;5.03;3.33;;;16.60;99.90;;;;;;5033193;28;21149;-74
2022/10/22 04:38:12;;;;;;;5.83;3.80;;;16.60;99.90;;;;;;5033320;28;20611;-75
2022/10/22 04:40:38;;;;;;;7.57;2.77;;;16.50;99.90;;;;;;5051303;28;20564;-75
2022/10/22 04:43:04;;;;;;;6.47;3.27;;;16.50;99.90;;;;;;5033044;28;20573;-74
2022/10/22 04:45:31;;;;;;;6.70;3.37;;;16.50;99.90;;;;;;5050833;28;20180;-74
2022/10/22 04:47:57;;;;;;;7.73;3.60;;;16.50;99.90;;;;;;5050924;28;20652;-74
2022/10/22 04:50:22;;;;;;;7.20;3.60;;;16.40;99.90;;;;;;5036907;28;20941;-73
2022/10/22 04:52:48;;;;;;;3.87;3.47;;;16.40;99.90;;;;;;5029608;28;20181;-73
2022/10/22 04:55:14;;;;;;;6.53;3.20;;;16.40;99.90;;;;;;5024426;28;20174;-73
2022/10/22 04:57:39;;;;;;;4.63;4.23;;;16.30;99.90;;;;;;5021514;28;20178;-73
2022/10/22 05:00:06;;;;;;;8.10;5.10;;;16.30;99.90;;;;;;5030932;28;20601;-73
2022/10/22 05:02:32;;;;;;;5.70;3.40;;;16.30;99.90;;;;;;5030576;28;20202;-74
2022/10/22 05:04:57;;;;;;;4.13;3.43;;;16.30;99.90;;;;;;5029658;28;21000;-74
2022/10/22 05:07:24;;;;;;;6.50;4.10;;;16.20;99.90;;;;;;5030953;28;20166;-74
2022/10/22 05:09:49;;;;;;;5.10;3.70;;;16.20;99.90;;;;;;5030818;28;20193;-73
2022/10/22 05:12:15;;;;;;;6.10;4.00;;;16.20;99.90;;;;;;5031798;28;20571;-74
2022/10/22 05:14:41;;;;;;;5.33;3.60;;;16.10;99.90;;;;;;5034900;28;20215;-81
2022/10/22 05:17:07;;;;;;;4.00;3.70;;;16.10;99.90;;;;;;5034784;28;20173;-81
2022/10/22 05:19:33;;;;;;;5.83;3.80;;;16.20;99.90;;;;;;5033388;28;20312;-78
2022/10/22 05:22:01;;;;;;;4.90;3.77;;;16.10;99.90;;;;;;5033936;28;20659;-78
2022/10/22 05:24:28;;;;;;;5.63;4.80;;;16.10;99.90;;;;;;5034642;28;20169;-79
2022/10/22 05:26:56;;;;;;;7.60;4.30;;;16.10;99.90;;;;;;5039076;28;20615;-79
2022/10/22 05:29:22;;;;;;;4.20;3.50;;;16.00;99.90;;;;;;5027888;28;21214;-80
2022/10/22 05:31:49;;;;;;;6.23;3.57;;;16.00;99.90;;;;;;5031792;28;20584;-80
2022/10/22 05:34:15;;;;;;;6.07;3.67;;;16.00;99.90;;;;;;5032290;28;20577;-82
2022/10/22 05:36:41;;;;;;;9.93;3.60;;;16.00;99.90;;;;;;5034798;28;20580;-84
2022/10/22 05:39:07;;;;;;;5.00;4.50;;;16.00;99.90;;;;;;5034415;28;20608;-82
2022/10/22 05:41:34;;;;;;;4.20;3.57;;;16.00;99.90;;;;;;5038524;28;20624;-81
2022/10/22 05:44:02;;;;;;;5.50;3.90;;;16.00;99.90;;;;;;5037101;28;20198;-81
2022/10/22 05:46:29;;;;;;;5.80;4.10;;;16.00;99.90;;;;;;5038368;28;20580;-83
2022/10/22 05:48:58;;;;;;;7.03;3.67;;;15.90;99.90;;;;;;5035039;28;21024;-82
2022/10/22 05:51:25;;;;;;;5.73;4.53;;;15.90;99.90;;;;;;5034475;28;20556;-81
2022/10/22 05:53:55;;;;;;;5.33;4.57;;;15.90;99.90;;;;;;5033671;28;20683;-82
2022/10/22 05:56:21;;;;;;;4.70;3.80;;;15.90;99.90;;;;;;5030901;28;20604;-78
2022/10/22 05:58:48;;;;;;;4.87;3.77;;;15.90;99.90;;;;;;5031151;28;20600;-79
2022/10/22 06:01:22;;;;;;;4.77;4.17;;;15.90;99.90;;;;;;5033255;28;20654;-78
2022/10/22 06:03:48;;;;;;;5.40;3.97;;;15.90;99.90;;;;;;5036243;28;20748;-79
2022/10/22 06:06:17;;;;;;;6.23;4.80;;;16.00;99.90;;;;;;5032323;28;20591;-78
2022/10/22 06:08:44;;;;;;;3.87;3.47;;;16.00;99.90;;;;;;5032921;28;21009;-78
2022/10/22 06:11:10;;;;;;;4.37;3.57;;;16.00;99.90;;;;;;5032225;28;20585;-78
2022/10/22 06:13:35;;;;;;;6.77;3.90;;;16.10;99.90;;;;;;5033754;28;20581;-79
2022/10/22 06:16:01;;;;;;;8.37;3.70;;;16.10;99.90;;;;;;5034298;28;20579;-79
2022/10/22 06:18:27;;;;;;;6.93;4.53;;;16.10;99.90;;;;;;5032693;28;20209;-79
2022/10/22 06:20:52;;;;;;;5.70;3.70;;;16.10;99.90;;;;;;5033710;28;20206;-76
2022/10/22 06:23:18;;;;;;;4.30;3.57;;;16.20;99.90;;;;;;5031141;28;20178;-76
2022/10/22 06:25:54;;;;;;;6.00;3.60;;;16.20;99.90;;;;;;5033514;28;20174;-76
2022/10/22 06:28:19;;;;;;;7.00;3.90;;;16.20;99.90;;;;;;5033476;28;20181;-76
2022/10/22 06:30:45;;;;;;;5.77;3.50;;;16.30;99.90;;;;;;5050456;22;20631;-77
2022/10/22 06:33:11;;;;;;;5.13;3.30;;;16.40;99.90;;;;;;5065416;28;20169;-76
2022/10/22 06:35:37;;;;;;;6.63;3.30;;;16.40;99.90;;;;;;5077543;28;20188;-76
2022/10/22 06:38:03;;;;;;;3.97;2.90;;;16.40;99.90;;;;;;5038912;28;20198;-77
2022/10/22 06:40:29;;;;;;;6.57;3.33;;;16.50;99.90;;;;;;5056677;28;20733;-76
2022/10/22 06:42:55;;;;;;;3.93;3.20;;;16.50;99.90;;;;;;5039113;28;20183;-76
2022/10/22 06:45:21;;;;;;;4.73;3.30;;;16.60;99.90;;;;;;5074412;28;20567;-77
2022/10/22 06:47:47;;;;;;;3.77;2.90;;;16.60;99.90;;;;;;5055898;28;20172;-76
2022/10/22 06:50:13;;;;;;;5.23;3.60;;;16.60;99.90;;;;;;5039535;28;20637;-76
2022/10/22 06:52:39;;;;;;;6.80;3.30;;;16.60;99.90;;;;;;5056066;28;20618;-76
2022/10/22 06:55:05;;;;;;;4.00;2.60;;;16.70;99.90;;;;;;5056369;28;20578;-76
2022/10/22 06:57:31;;;;;;;3.13;2.30;;;16.70;99.90;;;;;;5074422;28;20167;-77
2022/10/22 06:59:57;;;;;;;4.07;3.40;;;16.70;99.90;;;;;;5056419;28;20717;-77
2022/10/22 07:02:23;;;;;;;3.80;3.20;;;16.70;99.90;;;;;;5073950;28;20625;-76
2022/10/22 07:04:48;;;;;;;5.60;2.73;;;16.70;99.90;;;;;;5074826;28;20267;-77
2022/10/22 07:07:14;;;;;;;4.83;3.27;;;16.70;99.90;;;;;;5074852;28;20528;-76
2022/10/22 07:09:44;;;;;;;6.83;3.07;;;16.70;99.90;;;;;;5074523;28;20697;-77
2022/10/22 07:12:11;;;;;;;5.90;2.73;;;16.70;99.90;;;;;;5078146;28;20192;-77
2022/10/22 07:14:37;;;;;;;5.23;2.57;;;16.70;99.90;;;;;;5076054;28;20562;-77
2022/10/22 07:17:03;;;;;;;5.10;2.80;;;16.70;99.90;;;;;;5056921;28;20671;-77
2022/10/22 07:19:29;;;;;;;5.20;2.80;;;16.70;99.90;;;;;;5074506;28;20606;-76
2022/10/22 07:21:54;;;;;;;7.00;2.77;;;16.70;99.90;;;;;;5038244;28;20212;-77
2022/10/22 07:24:20;;;;;;;2.97;2.10;;;16.70;99.90;;;;;;5071945;28;20168;-78
2022/10/22 07:26:46;;;;;;;3.43;2.50;;;16.70;99.90;;;;;;5072200;28;20167;-78
2022/10/22 07:29:14;;;;;;;4.17;1.87;;;16.80;99.90;;;;;;5037803;28;20667;-78
2022/10/22 07:31:40;;;;;;;5.70;2.73;;;16.80;99.90;;;;;;5054182;28;20211;-78
2022/10/22 07:34:06;;;;;;;5.50;2.67;;;16.90;99.90;;;;;;5071909;28;20567;-78
2022/10/22 07:36:32;;;;;;;7.00;2.03;;;16.90;99.90;;;;;;5037512;28;20915;-78
2022/10/22 07:38:59;;;;;;;5.43;2.63;;;17.00;99.90;;;;;;5071890;28;20674;-77
2022/10/22 07:41:26;;;;;;;5.47;2.00;;;17.10;99.90;;;;;;5071464;28;20238;-77
2022/10/22 07:43:52;;;;;;;3.07;1.90;;;17.20;99.90;;;;;;5071574;28;20571;-77
2022/10/22 07:46:18;;;;;;;4.47;2.20;;;17.40;99.90;;;;;;5072122;28;21132;-77
2022/10/22 07:48:45;;;;;;;4.03;1.47;;;17.60;99.90;;;;;;5058595;28;20194;-77
2022/10/22 07:51:10;;;;;;;7.53;1.97;;;17.80;99.90;;;;;;5053829;28;20947;-77
2022/10/22 07:53:37;;;;;;;3.53;1.40;;;18.00;99.90;;;;;;5071506;28;20605;-77
2022/10/22 07:56:03;;;;;;;7.60;1.40;;;18.20;99.90;;;;;;5053881;28;20628;-77
2022/10/22 07:58:28;;;;;;;6.17;2.03;;;18.30;99.90;;;;;;5037154;28;21153;-77
2022/10/22 08:00:56;;;;;;;3.97;1.53;;;18.40;99.90;;;;;;5071567;28;20618;-77
2022/10/22 08:03:22;;;;;;;2.57;1.37;;;18.50;99.90;;;;;;5053570;28;20571;-77
2022/10/22 08:05:48;;;;;;;4.77;1.60;;;18.70;99.90;;;;;;5071599;28;21182;-77
2022/10/22 08:08:15;;;;;;;2.80;1.40;;;18.80;99.90;;;;;;5037302;28;20211;-77
2022/10/22 08:10:41;;;;;;;5.37;1.67;;;19.00;99.90;;;;;;5071605;28;21417;-77
2022/10/22 08:13:07;;;;;;;3.30;1.87;;;19.10;99.90;;;;;;5071371;28;20571;-77
2022/10/22 08:15:34;;;;;;;6.23;1.77;;;19.10;99.90;;;;;;5053663;28;20571;-77
2022/10/22 08:17:59;;;;;;;2.80;1.40;;;19.20;99.90;;;;;;5071652;28;20632;-77
2022/10/22 08:20:25;;;;;;;2.60;1.40;;;19.20;99.90;;;;;;5071269;28;20613;-77
2022/10/22 08:22:51;;;;;;;3.60;1.40;;;19.20;99.90;;;;;;5054409;28;20172;-76
2022/10/22 08:25:17;;;;;;;5.43;2.07;;;19.30;99.90;;;;;;5057892;28;20575;-77
2022/10/22 08:27:43;;;;;;;6.83;2.17;;;19.30;99.90;;;;;;5073843;28;20255;-76
2022/10/22 08:30:10;;;;;;;3.53;1.10;;;19.20;99.90;;;;;;5072386;28;20924;-75
2022/10/22 08:32:36;;;;;;;3.63;1.83;;;19.20;99.90;;;;;;5054459;28;20713;-77
2022/10/22 08:35:01;;;;;;;3.33;1.40;;;19.20;99.90;;;;;;5072673;28;20673;-76
2022/10/22 08:37:28;;;;;;;2.83;1.57;;;19.10;99.90;;;;;;5072636;28;20172;-77
2022/10/22 08:39:53;;;;;;;2.70;1.40;;;19.20;99.90;;;;;;5073073;28;20606;-77
2022/10/22 08:42:47;;;;;;;1.80;1.00;;;19.10;99.90;;;;;;5072479;28;20675;-78
2022/10/22 08:45:24;;;;;;;4.00;1.40;;;19.10;99.90;;;;;;5072196;28;20160;-78
2022/10/22 08:48:06;;;;;;;4.10;1.60;;;19.10;99.90;;;;;;5056826;28;20922;-78
2022/10/22 08:50:34;;;;;;;3.83;1.30;;;19.10;99.90;;;;;;5078173;28;20568;-77
2022/10/22 08:53:03;;;;;;;3.53;1.50;;;19.20;99.90;;;;;;5058082;28;20612;-77
2022/10/22 08:55:30;;;;;;;2.40;1.30;;;19.30;99.90;;;;;;5058839;28;20570;-78
2022/10/22 08:58:20;;;;;;;2.53;1.13;;;19.40;99.90;;;;;;5076037;28;21141;-77
2022/10/22 09:00:58;;;;;;;2.93;1.10;;;19.50;99.90;;;;;;5083236;28;20626;-78
2022/10/22 09:03:36;;;;;;;4.03;1.47;;;19.60;99.90;;;;;;5060297;28;21031;-78
2022/10/22 09:06:17;;;;;;;2.93;1.20;;;19.70;99.90;;;;;;5058099;28;20611;-78
2022/10/22 09:08:44;;;;;;;2.73;1.20;;;19.80;99.90;;;;;;5078618;28;21039;-77
2022/10/22 09:11:16;;;;;;;4.00;1.10;;;19.90;99.90;;;;;;5075064;28;20736;-77
2022/10/22 09:13:44;;;;;;;3.30;1.10;;;20.00;99.90;;;;;;5075534;28;20562;-77
2022/10/22 09:16:21;;;;;;;3.60;1.07;;;20.10;99.90;;;;;;5057329;28;20571;-77
2022/10/22 09:18:57;;;;;;;2.70;1.30;;;20.30;99.90;;;;;;5074623;28;20656;-77
2022/10/22 09:21:23;;;;;;;3.23;1.20;;;20.40;99.90;;;;;;5074237;28;20962;-76
2022/10/22 09:24:17;;;;;;;4.50;1.33;;;20.50;99.90;;;;;;5056159;28;20590;-77
2022/10/22 09:26:43;;;;;;;5.93;1.10;;;20.50;99.90;;;;;;5074276;28;20168;-76
2022/10/22 09:29:18;;;;;;;4.23;1.13;;;20.70;99.90;;;;;;5056350;28;20574;-76
2022/10/22 09:31:44;;;;;;;4.00;1.40;;;20.70;99.90;;;;;;5074008;28;20239;-77
2022/10/22 09:34:13;;;;;;;4.80;1.00;;;20.80;99.90;;;;;;5074057;28;20597;-76
2022/10/22 09:36:39;;;;;;;3.47;1.10;;;20.80;99.90;;;;;;5074233;28;20201;-78
2022/10/22 09:39:25;;;;;;;8.97;1.30;;;20.80;99.90;;;;;;5057299;28;20563;-78
2022/10/22 09:41:50;;;;;;;3.10;1.87;;;20.80;99.90;;;;;;5075003;28;20211;-78
2022/10/22 09:44:18;;;;;;;5.20;1.20;;;20.90;99.90;;;;;;5074039;28;20675;-78
2022/10/22 09:46:44;;;;;;;3.30;0.80;;;20.90;99.90;;;;;;5074463;28;20176;-77
2022/10/22 09:49:15;;;;;;;2.80;0.90;;;20.90;99.90;;;;;;5074567;28;20573;-77
2022/10/22 09:51:58;;;;;;;2.87;0.97;;;20.80;99.90;;;;;;5058107;28;20637;-78
2022/10/22 09:54:45;;;;;;;3.57;1.00;;;20.80;99.90;;;;;;5056373;28;20976;-76
2022/10/22 09:57:20;;;;;;;6.10;1.33;;;20.80;99.90;;;;;;5073490;28;20585;-77
2022/10/22 09:59:48;;;;;;;3.23;1.17;;;20.80;99.90;;;;;;5072631;28;20574;-77
2022/10/22 10:02:22;;;;;;;5.60;1.00;;;20.80;99.90;;;;;;5074262;28;20586;-78
2022/10/22 10:04:49;;;;;;;4.07;1.70;;;20.80;99.90;;;;;;5056263;28;21109;-78
2022/10/22 10:07:17;;;;;;;5.17;1.90;;;20.80;99.90;;;;;;5075023;28;20620;-77
2022/10/22 10:09:43;;;;;;;4.67;1.60;;;20.90;99.90;;;;;;5039601;28;20563;-78
2022/10/22 10:12:36;;;;;;;2.60;1.00;;;20.90;99.90;;;;;;5073533;28;20629;-78
2022/10/22 10:15:26;;;;;;;6.53;1.23;;;20.80;99.90;;;;;;5073680;28;20184;-78
2022/10/22 10:18:27;;;;;;;3.93;0.97;;;20.90;99.90;;;;;;5078888;28;20563;-77
2022/10/22 10:21:01;;;;;;;3.20;0.90;;;20.90;99.90;;;;;;5055178;28;20740;-77
2022/10/22 10:23:59;;;;;;;5.73;1.50;;;20.90;99.90;;;;;;5038318;28;20577;-78
2022/10/22 10:26:47;;;;;;;5.27;1.50;;;20.80;99.90;;;;;;5072957;28;20563;-79
2022/10/22 10:29:44;;;;;;;3.50;1.00;;;20.80;99.90;;;;;;5072999;28;20555;-78
2022/10/22 10:32:23;;;;;;;3.40;1.30;;;20.80;99.90;;;;;;5054686;28;21212;-78
2022/10/22 10:35:14;;;;;;;3.90;1.20;;;20.80;99.90;;;;;;5073194;28;20574;-79
2022/10/22 10:37:47;;;;;;;3.80;0.90;;;20.80;99.90;;;;;;5055160;28;20565;-78
2022/10/22 10:40:55;;;;;;;3.87;0.90;;;20.70;99.90;;;;;;5055212;28;20946;-78
2022/10/22 10:43:48;;;;;;;4.13;2.97;;;20.70;99.90;;;;;;5060905;28;20686;-78
2022/10/22 10:46:27;;;;;;;2.20;0.90;;;20.70;99.90;;;;;;5073057;28;20570;-77
2022/10/22 10:49:07;;;;;;;2.93;1.00;;;20.80;99.90;;;;;;5073144;28;20563;-78
2022/10/22 10:52:10;;;;;;;3.00;0.97;;;20.80;99.90;;;;;;5072964;28;20613;-79
2022/10/22 10:54:47;;;;;;;4.00;1.50;;;20.80;99.90;;;;;;5074219;28;20562;-79
2022/10/22 10:57:43;;;;;;;3.60;2.37;;;20.80;99.90;;;;;;5072902;28;20566;-78
2022/10/22 11:00:14;;;;;;;5.10;2.93;;;20.80;99.90;;;;;;5054566;28;20618;-78
2022/10/22 11:02:58;;;;;;;4.57;1.33;;;20.80;99.90;;;;;;5054232;28;20606;-79
2022/10/22 11:05:53;;;;;;;4.03;1.70;;;20.80;99.90;;;;;;5072650;28;20569;-79
2022/10/22 11:08:29;;;;;;;3.90;1.90;;;20.80;99.90;;;;;;5073198;28;20585;-79
2022/10/22 11:11:10;;;;;;;3.37;1.57;;;20.90;99.90;;;;;;5073093;28;20705;-79
2022/10/22 11:13:56;;;;;;;3.83;1.27;;;20.90;99.90;;;;;;5072454;28;21175;-79
2022/10/22 11:16:24;;;;;;;4.60;1.10;;;21.10;99.90;;;;;;5072586;28;20563;-78
2022/10/22 11:19:02;;;;;;;3.53;0.90;;;21.10;99.90;;;;;;5072343;28;20569;-79
2022/10/22 11:21:31;;;;;;;2.20;0.87;;;21.20;99.90;;;;;;5071967;28;20622;-79
2022/10/22 11:24:17;;;;;;;3.33;1.00;;;21.20;99.90;;;;;;5072088;28;20563;-79
2022/10/22 11:26:56;;;;;;;3.00;1.07;;;21.20;99.90;;;;;;5072306;28;20573;-79
2022/10/22 11:29:30;;;;;;;5.67;1.27;;;21.20;99.90;;;;;;5054485;28;20673;-80
2022/10/22 11:31:57;;;;;;;3.60;1.00;;;21.20;99.90;;;;;;5073498;28;20606;-79
2022/10/22 11:34:41;;;;;;;5.60;1.40;;;21.20;99.90;;;;;;5072661;28;20574;-79
2022/10/22 11:37:10;;;;;;;3.40;1.07;;;21.10;99.90;;;;;;5072568;28;20562;-76
2022/10/22 11:39:41;;;;;;;5.10;1.00;;;21.10;99.90;;;;;;5072431;28;20656;-78
2022/10/22 11:42:32;;;;;;;3.30;0.90;;;21.00;99.90;;;;;;5071841;28;20950;-78
2022/10/22 11:45:00;;;;;;;2.87;0.90;;;21.00;99.90;;;;;;5054091;28;20585;-77
2022/10/22 11:47:31;;;;;;;5.10;1.30;;;21.00;99.90;;;;;;5071767;28;20641;-78
2022/10/22 11:50:20;;;;;;;3.50;1.90;;;21.00;99.90;;;;;;5071991;28;20590;-78
2022/10/22 11:53:07;;;;;;;6.63;3.37;;;21.00;99.90;;;;;;5071481;28;20665;-78
2022/10/22 11:55:50;;;;;;;4.77;2.30;;;20.90;99.90;;;;;;5073559;28;20566;-77
2022/10/22 11:58:32;;;;;;;4.87;1.60;;;20.90;99.90;;;;;;5057738;28;20578;-77
2022/10/22 12:01:00;;;;;;;6.13;4.53;;;21.00;99.90;;;;;;5074897;28;20650;-77
2022/10/22 12:03:33;;;;;;;8.07;5.27;;;21.00;99.90;;;;;;5074597;28;20611;-77
2022/10/22 12:06:11;;;;;;;5.07;2.47;;;21.00;99.90;;;;;;5074929;28;20571;-77
2022/10/22 12:08:51;;;;;;;6.80;4.53;;;21.00;99.90;;;;;;5076787;28;20585;-78
2022/10/22 12:11:21;;;;;;;3.10;2.50;;;21.00;99.90;;;;;;5074691;28;20594;-77
2022/10/22 12:14:12;;;;;;;4.07;1.50;;;21.00;99.90;;;;;;5073955;28;20960;-77
2022/10/22 12:16:43;;;;;;;2.17;1.17;;;21.00;99.90;;;;;;5074030;28;20551;-77
2022/10/22 12:19:09;;;;;;;2.30;0.90;;;21.10;99.90;;;;;;5074185;28;20559;-77
2022/10/22 12:21:38;;;;;;;2.20;1.17;;;21.10;99.90;;;;;;5039572;28;20676;-77
2022/10/22 12:24:06;;;;;;;2.77;0.60;;;21.10;99.90;;;;;;5077715;28;20651;-78
2022/10/22 12:26:34;;;;;;;1.63;0.73;;;21.10;99.90;;;;;;5077760;28;21172;-78
2022/10/22 12:29:09;;;;;;;1.67;0.60;;;21.10;99.90;;;;;;5078033;28;21037;-78
2022/10/22 12:31:37;;;;;;;1.80;0.60;;;21.20;99.90;;;;;;5060546;28;20613;-78
2022/10/22 12:34:03;;;;;;;2.07;0.73;;;21.20;99.90;;;;;;5077824;28;20567;-77
2022/10/22 12:36:32;;;;;;;3.87;0.80;;;21.30;99.90;;;;;;5076718;28;20570;-79
2022/10/22 12:39:08;;;;;;;2.50;0.70;;;21.40;99.90;;;;;;5077892;28;20600;-79
2022/10/22 12:41:36;;;;;;;2.40;0.80;;;21.50;99.90;;;;;;5076584;28;20827;-79
2022/10/22 12:44:03;;;;;;;2.47;0.80;;;21.70;99.90;;;;;;5082189;28;20574;-78
2022/10/22 12:46:34;;;;;;;2.70;0.70;;;21.80;99.90;;;;;;5086220;28;20563;-79
2022/10/22 12:49:03;;;;;;;5.03;1.23;;;21.90;99.90;;;;;;5083101;28;20649;-78
2022/10/22 12:51:30;;;;;;;2.40;1.07;;;22.00;99.90;;;;;;5079606;28;20613;-79
2022/10/22 12:54:01;;;;;;;4.47;3.17;;;22.00;99.90;;;;;;5078995;28;20574;-78
2022/10/22 12:56:32;;;;;;;5.27;3.10;;;22.00;99.90;;;;;;5079337;28;20579;-79
2022/10/22 12:59:26;;;;;;;4.90;1.37;;;21.90;99.90;;;;;;5079244;28;20582;-79
2022/10/22 13:01:53;;;;;;;2.60;0.90;;;21.80;99.90;;;;;;5071579;28;20654;-78
2022/10/22 13:04:34;;;;;;;1.90;0.87;;;21.80;99.90;;;;;;5075672;28;20657;-79
2022/10/22 13:07:11;;;;;;;5.10;0.90;;;21.60;99.90;;;;;;5057678;28;20620;-79
2022/10/22 13:09:57;;;;;;;3.30;0.73;;;21.60;99.90;;;;;;5057180;28;20570;-78